sensor_id;sensor_type;location;lat;lon;timestamp;P1;durP1;ratioP1;P2;durP2;ratioP2
11797;SDS011;5956;51.428;6.682;2022-08-03T00:00:17;5.03;;;2.70;;
11797;SDS011;5956;51.428;6.682;2022-08-03T00:02:44;2.90;;;2.70;;
11797;SDS011;5956;51.428;6.682;2022-08-03T00:05:10;4.25;;;3.10;;
11797;SDS011;5956;51.428;6.682;2022-08-03T00:07:37;5.10;;;3.10;;
11797;SDS011;5956;51.428;6.682;2022-08-03T00:10:05;4.70;;;2.90;;
11797;SDS011;5956;51.428;6.682;2022-08-03T00:12:33;6.57;;;3.30;;
11797;SDS011;5956;51.428;6.682;2022-08-03T00:15:00;3.67;;;3.22;;
11797;SDS011;5956;51.428;6.682;2022-08-03T00:17:27;3.80;;;2.88;;
11797;SDS011;5956;51.428;6.682;2022-08-03T00:19:53;5.32;;;3.22;;
11797;SDS011;5956;51.428;6.682;2022-08-03T00:22:20;4.72;;;2.83;;
11797;SDS011;5956;51.428;6.682;2022-08-03T00:24:46;3.58;;;3.28;;
11797;SDS011;5956;51.428;6.682;2022-08-03T00:27:13;4.15;;;2.97;;
11797;SDS011;5956;51.428;6.682;2022-08-03T00:29:40;3.05;;;2.85;;
11797;SDS011;5956;51.428;6.682;2022-08-03T00:32:07;6.68;;;3.13;;
11797;SDS011;5956;51.428;6.682;2022-08-03T00:34:33;4.20;;;3.03;;
11797;SDS011;5956;51.428;6.682;2022-08-03T00:37:00;5.78;;;3.13;;
11797;SDS011;5956;51.428;6.682;2022-08-03T00:39:26;4.72;;;3.20;;
11797;SDS011;5956;51.428;6.682;2022-08-03T00:41:53;3.80;;;3.50;;
11797;SDS011;5956;51.428;6.682;2022-08-03T00:44:19;4.47;;;3.67;;
11797;SDS011;5956;51.428;6.682;2022-08-03T00:46:47;3.60;;;3.30;;
11797;SDS011;5956;51.428;6.682;2022-08-03T00:49:14;4.43;;;3.08;;
11797;SDS011;5956;51.428;6.682;2022-08-03T00:51:40;4.30;;;3.17;;
11797;SDS011;5956;51.428;6.682;2022-08-03T00:54:07;3.30;;;2.97;;
11797;SDS011;5956;51.428;6.682;2022-08-03T00:56:33;4.90;;;2.83;;
11797;SDS011;5956;51.428;6.682;2022-08-03T00:59:01;3.20;;;2.90;;
11797;SDS011;5956;51.428;6.682;2022-08-03T01:01:28;3.25;;;2.92;;
11797;SDS011;5956;51.428;6.682;2022-08-03T01:03:56;3.65;;;3.10;;
11797;SDS011;5956;51.428;6.682;2022-08-03T01:06:24;3.30;;;3.00;;
11797;SDS011;5956;51.428;6.682;2022-08-03T01:08:57;4.07;;;3.53;;
11797;SDS011;5956;51.428;6.682;2022-08-03T01:11:27;4.38;;;3.50;;
11797;SDS011;5956;51.428;6.682;2022-08-03T01:14:07;3.72;;;3.42;;
11797;SDS011;5956;51.428;6.682;2022-08-03T01:16:36;3.22;;;3.03;;
11797;SDS011;5956;51.428;6.682;2022-08-03T01:19:11;4.18;;;3.65;;
11797;SDS011;5956;51.428;6.682;2022-08-03T01:21:39;6.15;;;3.88;;
11797;SDS011;5956;51.428;6.682;2022-08-03T01:24:15;3.45;;;3.20;;
11797;SDS011;5956;51.428;6.682;2022-08-03T01:26:52;3.83;;;3.47;;
11797;SDS011;5956;51.428;6.682;2022-08-03T01:32:08;5.53;;;3.13;;
11797;SDS011;5956;51.428;6.682;2022-08-03T01:34:40;4.55;;;3.35;;
11797;SDS011;5956;51.428;6.682;2022-08-03T01:37:06;3.47;;;3.17;;
11797;SDS011;5956;51.428;6.682;2022-08-03T01:39:34;3.15;;;2.90;;
11797;SDS011;5956;51.428;6.682;2022-08-03T01:42:03;4.28;;;3.28;;
11797;SDS011;5956;51.428;6.682;2022-08-03T01:44:32;3.60;;;3.30;;
11797;SDS011;5956;51.428;6.682;2022-08-03T01:47:00;4.50;;;4.10;;
11797;SDS011;5956;51.428;6.682;2022-08-03T01:49:29;3.38;;;3.17;;
11797;SDS011;5956;51.428;6.682;2022-08-03T01:51:56;5.65;;;3.50;;
11797;SDS011;5956;51.428;6.682;2022-08-03T01:54:24;4.53;;;3.92;;
11797;SDS011;5956;51.428;6.682;2022-08-03T01:56:51;3.88;;;3.58;;
11797;SDS011;5956;51.428;6.682;2022-08-03T01:59:18;3.97;;;3.40;;
11797;SDS011;5956;51.428;6.682;2022-08-03T02:01:45;5.05;;;3.70;;
11797;SDS011;5956;51.428;6.682;2022-08-03T02:04:13;3.75;;;3.20;;
11797;SDS011;5956;51.428;6.682;2022-08-03T02:06:41;4.07;;;3.13;;
11797;SDS011;5956;51.428;6.682;2022-08-03T02:09:08;3.58;;;3.28;;
11797;SDS011;5956;51.428;6.682;2022-08-03T02:11:36;4.75;;;3.50;;
11797;SDS011;5956;51.428;6.682;2022-08-03T02:14:04;3.67;;;3.38;;
11797;SDS011;5956;51.428;6.682;2022-08-03T02:16:31;3.95;;;3.58;;
11797;SDS011;5956;51.428;6.682;2022-08-03T02:18:59;4.22;;;3.20;;
11797;SDS011;5956;51.428;6.682;2022-08-03T02:21:27;3.58;;;3.20;;
11797;SDS011;5956;51.428;6.682;2022-08-03T02:23:55;3.65;;;3.35;;
11797;SDS011;5956;51.428;6.682;2022-08-03T02:26:22;5.28;;;3.65;;
11797;SDS011;5956;51.428;6.682;2022-08-03T02:28:50;3.85;;;3.55;;
11797;SDS011;5956;51.428;6.682;2022-08-03T02:31:18;5.15;;;3.40;;
11797;SDS011;5956;51.428;6.682;2022-08-03T02:33:48;4.43;;;3.40;;
11797;SDS011;5956;51.428;6.682;2022-08-03T02:36:15;4.60;;;3.65;;
11797;SDS011;5956;51.428;6.682;2022-08-03T02:38:45;4.68;;;3.53;;
11797;SDS011;5956;51.428;6.682;2022-08-03T02:41:15;3.90;;;3.28;;
11797;SDS011;5956;51.428;6.682;2022-08-03T02:43:44;6.50;;;3.88;;
11797;SDS011;5956;51.428;6.682;2022-08-03T02:46:11;4.38;;;3.60;;
11797;SDS011;5956;51.428;6.682;2022-08-03T02:48:39;4.20;;;3.13;;
11797;SDS011;5956;51.428;6.682;2022-08-03T02:51:06;3.83;;;3.53;;
11797;SDS011;5956;51.428;6.682;2022-08-03T02:53:33;6.25;;;3.38;;
11797;SDS011;5956;51.428;6.682;2022-08-03T02:56:00;3.50;;;3.30;;
11797;SDS011;5956;51.428;6.682;2022-08-03T02:58:29;5.03;;;3.33;;
11797;SDS011;5956;51.428;6.682;2022-08-03T03:00:56;4.75;;;3.08;;
11797;SDS011;5956;51.428;6.682;2022-08-03T03:03:23;4.68;;;3.50;;
11797;SDS011;5956;51.428;6.682;2022-08-03T03:05:49;5.40;;;3.60;;
11797;SDS011;5956;51.428;6.682;2022-08-03T03:08:17;6.00;;;3.30;;
11797;SDS011;5956;51.428;6.682;2022-08-03T03:10:44;5.18;;;4.25;;
11797;SDS011;5956;51.428;6.682;2022-08-03T03:13:10;4.93;;;3.70;;
11797;SDS011;5956;51.428;6.682;2022-08-03T03:15:40;4.47;;;3.67;;
11797;SDS011;5956;51.428;6.682;2022-08-03T03:18:07;4.03;;;3.67;;
11797;SDS011;5956;51.428;6.682;2022-08-03T03:20:34;3.78;;;3.40;;
11797;SDS011;5956;51.428;6.682;2022-08-03T03:23:01;3.83;;;3.60;;
11797;SDS011;5956;51.428;6.682;2022-08-03T03:25:29;5.00;;;3.85;;
11797;SDS011;5956;51.428;6.682;2022-08-03T03:27:56;4.30;;;3.70;;
11797;SDS011;5956;51.428;6.682;2022-08-03T03:30:22;5.05;;;3.45;;
11797;SDS011;5956;51.428;6.682;2022-08-03T03:32:50;5.82;;;4.03;;
11797;SDS011;5956;51.428;6.682;2022-08-03T03:35:17;5.65;;;4.00;;
11797;SDS011;5956;51.428;6.682;2022-08-03T03:37:43;6.18;;;4.57;;
11797;SDS011;5956;51.428;6.682;2022-08-03T03:40:10;6.70;;;4.95;;
11797;SDS011;5956;51.428;6.682;2022-08-03T03:42:37;7.60;;;4.20;;
11797;SDS011;5956;51.428;6.682;2022-08-03T03:45:04;8.02;;;4.65;;
11797;SDS011;5956;51.428;6.682;2022-08-03T03:47:30;5.20;;;4.70;;
11797;SDS011;5956;51.428;6.682;2022-08-03T03:50:00;5.30;;;4.65;;
11797;SDS011;5956;51.428;6.682;2022-08-03T03:52:26;6.70;;;4.78;;
11797;SDS011;5956;51.428;6.682;2022-08-03T03:54:53;7.00;;;4.68;;
11797;SDS011;5956;51.428;6.682;2022-08-03T03:57:19;6.72;;;4.75;;
11797;SDS011;5956;51.428;6.682;2022-08-03T03:59:46;5.15;;;4.70;;
11797;SDS011;5956;51.428;6.682;2022-08-03T04:02:13;5.47;;;4.53;;
11797;SDS011;5956;51.428;6.682;2022-08-03T04:04:39;6.22;;;4.93;;
11797;SDS011;5956;51.428;6.682;2022-08-03T04:07:25;7.15;;;4.80;;
11797;SDS011;5956;51.428;6.682;2022-08-03T04:10:10;6.72;;;4.68;;
11797;SDS011;5956;51.428;6.682;2022-08-03T04:12:54;7.38;;;5.25;;
11797;SDS011;5956;51.428;6.682;2022-08-03T04:15:24;7.32;;;5.00;;
11797;SDS011;5956;51.428;6.682;2022-08-03T04:17:51;4.93;;;4.43;;
11797;SDS011;5956;51.428;6.682;2022-08-03T04:20:19;5.50;;;4.60;;
11797;SDS011;5956;51.428;6.682;2022-08-03T04:22:48;6.15;;;4.43;;
11797;SDS011;5956;51.428;6.682;2022-08-03T04:25:15;6.30;;;5.47;;
11797;SDS011;5956;51.428;6.682;2022-08-03T04:27:43;6.38;;;5.78;;
11797;SDS011;5956;51.428;6.682;2022-08-03T04:30:12;9.13;;;5.53;;
11797;SDS011;5956;51.428;6.682;2022-08-03T04:32:39;6.95;;;6.22;;
11797;SDS011;5956;51.428;6.682;2022-08-03T04:35:07;7.70;;;6.90;;
11797;SDS011;5956;51.428;6.682;2022-08-03T04:37:37;6.68;;;6.00;;
11797;SDS011;5956;51.428;6.682;2022-08-03T04:40:07;8.05;;;5.88;;
11797;SDS011;5956;51.428;6.682;2022-08-03T04:42:34;6.57;;;5.10;;
11797;SDS011;5956;51.428;6.682;2022-08-03T04:45:03;10.98;;;7.18;;
11797;SDS011;5956;51.428;6.682;2022-08-03T04:47:30;6.38;;;5.72;;
11797;SDS011;5956;51.428;6.682;2022-08-03T04:49:58;5.53;;;4.90;;
11797;SDS011;5956;51.428;6.682;2022-08-03T04:52:25;6.03;;;4.90;;
11797;SDS011;5956;51.428;6.682;2022-08-03T04:54:52;5.93;;;5.35;;
11797;SDS011;5956;51.428;6.682;2022-08-03T04:57:19;6.68;;;4.88;;
11797;SDS011;5956;51.428;6.682;2022-08-03T04:59:46;5.60;;;5.03;;
11797;SDS011;5956;51.428;6.682;2022-08-03T05:02:13;6.32;;;5.72;;
11797;SDS011;5956;51.428;6.682;2022-08-03T05:04:39;7.50;;;5.25;;
11797;SDS011;5956;51.428;6.682;2022-08-03T05:07:10;7.78;;;5.35;;
11797;SDS011;5956;51.428;6.682;2022-08-03T05:09:37;6.07;;;5.35;;
11797;SDS011;5956;51.428;6.682;2022-08-03T05:12:03;9.50;;;6.63;;
11797;SDS011;5956;51.428;6.682;2022-08-03T05:14:31;7.43;;;6.70;;
11797;SDS011;5956;51.428;6.682;2022-08-03T05:16:58;6.70;;;5.97;;
11797;SDS011;5956;51.428;6.682;2022-08-03T05:19:24;7.18;;;5.30;;
11797;SDS011;5956;51.428;6.682;2022-08-03T05:21:51;5.60;;;5.10;;
11797;SDS011;5956;51.428;6.682;2022-08-03T05:24:17;5.93;;;5.30;;
11797;SDS011;5956;51.428;6.682;2022-08-03T05:26:44;7.07;;;5.30;;
11797;SDS011;5956;51.428;6.682;2022-08-03T05:29:10;6.82;;;6.22;;
11797;SDS011;5956;51.428;6.682;2022-08-03T05:31:38;6.47;;;5.35;;
11797;SDS011;5956;51.428;6.682;2022-08-03T05:34:05;6.75;;;5.70;;
11797;SDS011;5956;51.428;6.682;2022-08-03T05:36:31;6.78;;;5.72;;
11797;SDS011;5956;51.428;6.682;2022-08-03T05:38:58;9.85;;;5.32;;
11797;SDS011;5956;51.428;6.682;2022-08-03T05:41:24;5.47;;;4.53;;
11797;SDS011;5956;51.428;6.682;2022-08-03T05:43:51;4.35;;;3.80;;
11797;SDS011;5956;51.428;6.682;2022-08-03T05:46:18;4.90;;;4.18;;
11797;SDS011;5956;51.428;6.682;2022-08-03T05:48:46;5.97;;;4.63;;
11797;SDS011;5956;51.428;6.682;2022-08-03T05:51:12;5.72;;;5.22;;
11797;SDS011;5956;51.428;6.682;2022-08-03T05:53:39;7.55;;;5.28;;
11797;SDS011;5956;51.428;6.682;2022-08-03T05:56:06;7.80;;;5.47;;
11797;SDS011;5956;51.428;6.682;2022-08-03T05:58:32;7.13;;;5.65;;
11797;SDS011;5956;51.428;6.682;2022-08-03T06:00:59;10.98;;;5.90;;
11797;SDS011;5956;51.428;6.682;2022-08-03T06:03:25;6.97;;;5.57;;
11797;SDS011;5956;51.428;6.682;2022-08-03T06:05:53;8.07;;;6.18;;
11797;SDS011;5956;51.428;6.682;2022-08-03T06:08:20;11.80;;;8.30;;
11797;SDS011;5956;51.428;6.682;2022-08-03T06:10:47;11.38;;;7.57;;
11797;SDS011;5956;51.428;6.682;2022-08-03T06:13:13;9.80;;;7.10;;
11797;SDS011;5956;51.428;6.682;2022-08-03T06:15:40;7.70;;;7.00;;
11797;SDS011;5956;51.428;6.682;2022-08-03T06:18:06;8.90;;;6.47;;
11797;SDS011;5956;51.428;6.682;2022-08-03T06:20:33;9.65;;;6.13;;
11797;SDS011;5956;51.428;6.682;2022-08-03T06:23:01;7.38;;;6.47;;
11797;SDS011;5956;51.428;6.682;2022-08-03T06:25:27;10.27;;;6.90;;
11797;SDS011;5956;51.428;6.682;2022-08-03T06:27:54;10.15;;;6.85;;
11797;SDS011;5956;51.428;6.682;2022-08-03T06:30:21;9.70;;;6.85;;
11797;SDS011;5956;51.428;6.682;2022-08-03T06:32:48;9.02;;;6.85;;
11797;SDS011;5956;51.428;6.682;2022-08-03T06:35:14;8.00;;;6.53;;
11797;SDS011;5956;51.428;6.682;2022-08-03T06:37:41;14.38;;;7.25;;
11797;SDS011;5956;51.428;6.682;2022-08-03T06:40:10;8.48;;;6.55;;
11797;SDS011;5956;51.428;6.682;2022-08-03T06:42:37;10.65;;;7.32;;
11797;SDS011;5956;51.428;6.682;2022-08-03T06:45:04;10.93;;;7.05;;
11797;SDS011;5956;51.428;6.682;2022-08-03T06:47:31;11.30;;;7.40;;
11797;SDS011;5956;51.428;6.682;2022-08-03T06:49:57;15.38;;;9.57;;
11797;SDS011;5956;51.428;6.682;2022-08-03T06:52:24;10.52;;;8.70;;
11797;SDS011;5956;51.428;6.682;2022-08-03T06:54:50;11.48;;;7.22;;
11797;SDS011;5956;51.428;6.682;2022-08-03T06:57:18;8.20;;;6.65;;
11797;SDS011;5956;51.428;6.682;2022-08-03T06:59:45;12.20;;;6.25;;
11797;SDS011;5956;51.428;6.682;2022-08-03T07:02:11;11.82;;;6.03;;
11797;SDS011;5956;51.428;6.682;2022-08-03T07:04:38;13.13;;;5.65;;
11797;SDS011;5956;51.428;6.682;2022-08-03T07:07:04;7.95;;;5.57;;
11797;SDS011;5956;51.428;6.682;2022-08-03T07:09:31;7.72;;;4.85;;
11797;SDS011;5956;51.428;6.682;2022-08-03T07:11:57;7.47;;;4.63;;
11797;SDS011;5956;51.428;6.682;2022-08-03T07:14:27;7.38;;;4.10;;
11797;SDS011;5956;51.428;6.682;2022-08-03T07:16:54;8.50;;;3.78;;
11797;SDS011;5956;51.428;6.682;2022-08-03T07:19:20;5.35;;;3.80;;
11797;SDS011;5956;51.428;6.682;2022-08-03T07:21:47;5.25;;;3.50;;
11797;SDS011;5956;51.428;6.682;2022-08-03T07:24:13;7.03;;;3.78;;
11797;SDS011;5956;51.428;6.682;2022-08-03T07:26:40;7.30;;;4.55;;
11797;SDS011;5956;51.428;6.682;2022-08-03T07:29:06;8.10;;;4.18;;
11797;SDS011;5956;51.428;6.682;2022-08-03T07:31:34;10.23;;;4.75;;
11797;SDS011;5956;51.428;6.682;2022-08-03T07:34:01;6.50;;;4.18;;
11797;SDS011;5956;51.428;6.682;2022-08-03T07:36:27;6.47;;;3.95;;
11797;SDS011;5956;51.428;6.682;2022-08-03T07:38:54;7.65;;;3.97;;
11797;SDS011;5956;51.428;6.682;2022-08-03T07:41:22;6.30;;;3.85;;
11797;SDS011;5956;51.428;6.682;2022-08-03T07:43:48;6.35;;;3.70;;
11797;SDS011;5956;51.428;6.682;2022-08-03T07:46:15;6.25;;;4.40;;
11797;SDS011;5956;51.428;6.682;2022-08-03T07:48:43;6.63;;;4.10;;
11797;SDS011;5956;51.428;6.682;2022-08-03T07:51:09;9.48;;;6.50;;
11797;SDS011;5956;51.428;6.682;2022-08-03T07:53:36;6.05;;;4.15;;
11797;SDS011;5956;51.428;6.682;2022-08-03T07:56:02;5.88;;;3.20;;
11797;SDS011;5956;51.428;6.682;2022-08-03T07:58:29;4.15;;;2.53;;
11797;SDS011;5956;51.428;6.682;2022-08-03T08:00:55;3.83;;;2.75;;
11797;SDS011;5956;51.428;6.682;2022-08-03T08:03:22;4.88;;;2.75;;
11797;SDS011;5956;51.428;6.682;2022-08-03T08:05:52;4.38;;;2.63;;
11797;SDS011;5956;51.428;6.682;2022-08-03T08:08:18;4.07;;;2.70;;
11797;SDS011;5956;51.428;6.682;2022-08-03T08:10:45;4.47;;;2.88;;
11797;SDS011;5956;51.428;6.682;2022-08-03T08:13:11;6.00;;;2.67;;
11797;SDS011;5956;51.428;6.682;2022-08-03T08:15:38;5.03;;;2.35;;
11797;SDS011;5956;51.428;6.682;2022-08-03T08:18:04;4.05;;;2.38;;
11797;SDS011;5956;51.428;6.682;2022-08-03T08:20:32;5.07;;;2.70;;
11797;SDS011;5956;51.428;6.682;2022-08-03T08:23:00;4.15;;;2.58;;
11797;SDS011;5956;51.428;6.682;2022-08-03T08:25:27;3.95;;;2.58;;
11797;SDS011;5956;51.428;6.682;2022-08-03T08:27:54;4.75;;;2.72;;
11797;SDS011;5956;51.428;6.682;2022-08-03T08:30:22;3.85;;;2.80;;
11797;SDS011;5956;51.428;6.682;2022-08-03T08:32:48;5.55;;;3.15;;
11797;SDS011;5956;51.428;6.682;2022-08-03T08:35:15;8.50;;;4.82;;
11797;SDS011;5956;51.428;6.682;2022-08-03T08:37:42;5.93;;;3.33;;
11797;SDS011;5956;51.428;6.682;2022-08-03T08:40:10;5.40;;;2.70;;
11797;SDS011;5956;51.428;6.682;2022-08-03T08:42:37;3.30;;;2.60;;
11797;SDS011;5956;51.428;6.682;2022-08-03T08:45:04;3.03;;;2.33;;
11797;SDS011;5956;51.428;6.682;2022-08-03T08:47:33;5.07;;;2.50;;
11797;SDS011;5956;51.428;6.682;2022-08-03T08:50:00;2.60;;;2.40;;
11797;SDS011;5956;51.428;6.682;2022-08-03T08:52:28;7.00;;;2.75;;
11797;SDS011;5956;51.428;6.682;2022-08-03T08:54:55;6.82;;;2.85;;
11797;SDS011;5956;51.428;6.682;2022-08-03T08:57:24;3.00;;;2.20;;
11797;SDS011;5956;51.428;6.682;2022-08-03T08:59:51;4.38;;;2.55;;
11797;SDS011;5956;51.428;6.682;2022-08-03T09:02:20;7.03;;;2.80;;
11797;SDS011;5956;51.428;6.682;2022-08-03T09:04:47;4.07;;;2.92;;
11797;SDS011;5956;51.428;6.682;2022-08-03T09:07:14;4.38;;;2.58;;
11797;SDS011;5956;51.428;6.682;2022-08-03T09:09:40;3.70;;;2.80;;
11797;SDS011;5956;51.428;6.682;2022-08-03T09:12:07;2.30;;;2.10;;
11797;SDS011;5956;51.428;6.682;2022-08-03T09:14:35;3.75;;;2.45;;
11797;SDS011;5956;51.428;6.682;2022-08-03T09:17:02;4.28;;;2.22;;
11797;SDS011;5956;51.428;6.682;2022-08-03T09:19:30;7.28;;;5.40;;
11797;SDS011;5956;51.428;6.682;2022-08-03T09:22:06;4.57;;;2.50;;
11797;SDS011;5956;51.428;6.682;2022-08-03T09:24:33;2.60;;;2.17;;
11797;SDS011;5956;51.428;6.682;2022-08-03T09:27:00;3.42;;;1.95;;
11797;SDS011;5956;51.428;6.682;2022-08-03T09:29:29;3.28;;;2.10;;
11797;SDS011;5956;51.428;6.682;2022-08-03T09:32:00;3.22;;;2.00;;
11797;SDS011;5956;51.428;6.682;2022-08-03T09:34:27;2.78;;;2.00;;
11797;SDS011;5956;51.428;6.682;2022-08-03T09:36:54;5.60;;;2.10;;
11797;SDS011;5956;51.428;6.682;2022-08-03T09:39:22;5.13;;;1.90;;
11797;SDS011;5956;51.428;6.682;2022-08-03T09:42:03;3.10;;;1.70;;
11797;SDS011;5956;51.428;6.682;2022-08-03T09:44:32;3.25;;;1.73;;
11797;SDS011;5956;51.428;6.682;2022-08-03T09:47:00;2.28;;;1.90;;
11797;SDS011;5956;51.428;6.682;2022-08-03T09:49:27;1.92;;;1.83;;
11797;SDS011;5956;51.428;6.682;2022-08-03T09:51:53;5.10;;;2.10;;
11797;SDS011;5956;51.428;6.682;2022-08-03T09:54:26;1.63;;;1.52;;
11797;SDS011;5956;51.428;6.682;2022-08-03T09:56:53;2.47;;;1.88;;
11797;SDS011;5956;51.428;6.682;2022-08-03T09:59:22;1.65;;;1.55;;
11797;SDS011;5956;51.428;6.682;2022-08-03T10:01:48;3.22;;;1.67;;
11797;SDS011;5956;51.428;6.682;2022-08-03T10:04:16;6.93;;;1.90;;
11797;SDS011;5956;51.428;6.682;2022-08-03T10:06:43;1.85;;;1.63;;
11797;SDS011;5956;51.428;6.682;2022-08-03T10:09:11;2.05;;;1.65;;
11797;SDS011;5956;51.428;6.682;2022-08-03T10:11:38;3.55;;;1.65;;
11797;SDS011;5956;51.428;6.682;2022-08-03T10:14:05;4.93;;;1.80;;
11797;SDS011;5956;51.428;6.682;2022-08-03T10:16:32;2.03;;;1.55;;
11797;SDS011;5956;51.428;6.682;2022-08-03T10:18:59;2.75;;;1.70;;
11797;SDS011;5956;51.428;6.682;2022-08-03T10:21:28;2.90;;;1.63;;
11797;SDS011;5956;51.428;6.682;2022-08-03T10:23:57;3.10;;;2.03;;
11797;SDS011;5956;51.428;6.682;2022-08-03T10:26:24;4.00;;;1.60;;
11797;SDS011;5956;51.428;6.682;2022-08-03T10:28:52;3.70;;;1.60;;
11797;SDS011;5956;51.428;6.682;2022-08-03T10:31:19;2.40;;;1.70;;
11797;SDS011;5956;51.428;6.682;2022-08-03T10:33:46;2.30;;;1.52;;
11797;SDS011;5956;51.428;6.682;2022-08-03T10:36:14;3.15;;;1.77;;
11797;SDS011;5956;51.428;6.682;2022-08-03T10:38:43;3.38;;;1.58;;
11797;SDS011;5956;51.428;6.682;2022-08-03T10:41:16;2.67;;;1.63;;
11797;SDS011;5956;51.428;6.682;2022-08-03T10:43:46;2.83;;;1.70;;
11797;SDS011;5956;51.428;6.682;2022-08-03T10:46:14;4.00;;;1.92;;
11797;SDS011;5956;51.428;6.682;2022-08-03T10:48:41;1.73;;;1.52;;
11797;SDS011;5956;51.428;6.682;2022-08-03T10:51:07;3.00;;;1.65;;
11797;SDS011;5956;51.428;6.682;2022-08-03T10:53:35;2.88;;;1.85;;
11797;SDS011;5956;51.428;6.682;2022-08-03T10:56:03;2.80;;;1.52;;
11797;SDS011;5956;51.428;6.682;2022-08-03T10:58:47;3.08;;;1.70;;
11797;SDS011;5956;51.428;6.682;2022-08-03T11:01:15;3.38;;;1.55;;
11797;SDS011;5956;51.428;6.682;2022-08-03T11:06:29;3.20;;;1.90;;
11797;SDS011;5956;51.428;6.682;2022-08-03T11:11:39;5.78;;;2.13;;
11797;SDS011;5956;51.428;6.682;2022-08-03T11:14:08;2.90;;;1.63;;
11797;SDS011;5956;51.428;6.682;2022-08-03T11:16:36;2.58;;;1.73;;
11797;SDS011;5956;51.428;6.682;2022-08-03T11:19:04;2.60;;;1.70;;
11797;SDS011;5956;51.428;6.682;2022-08-03T11:24:27;1.50;;;1.40;;
11797;SDS011;5956;51.428;6.682;2022-08-03T11:27:17;1.88;;;1.35;;
11797;SDS011;5956;51.428;6.682;2022-08-03T11:29:52;2.33;;;1.70;;
11797;SDS011;5956;51.428;6.682;2022-08-03T11:35:08;3.60;;;1.70;;
11797;SDS011;5956;51.428;6.682;2022-08-03T11:37:35;6.00;;;1.73;;
11797;SDS011;5956;51.428;6.682;2022-08-03T11:40:02;5.30;;;1.88;;
11797;SDS011;5956;51.428;6.682;2022-08-03T11:42:39;3.08;;;1.73;;
11797;SDS011;5956;51.428;6.682;2022-08-03T11:45:08;3.83;;;1.80;;
11797;SDS011;5956;51.428;6.682;2022-08-03T11:47:37;5.32;;;1.60;;
11797;SDS011;5956;51.428;6.682;2022-08-03T11:50:04;4.50;;;2.10;;
11797;SDS011;5956;51.428;6.682;2022-08-03T11:52:38;6.15;;;3.33;;
11797;SDS011;5956;51.428;6.682;2022-08-03T11:55:09;2.58;;;2.30;;
11797;SDS011;5956;51.428;6.682;2022-08-03T11:57:36;3.58;;;1.55;;
11797;SDS011;5956;51.428;6.682;2022-08-03T12:00:18;5.88;;;2.00;;
11797;SDS011;5956;51.428;6.682;2022-08-03T12:02:52;3.92;;;2.17;;
11797;SDS011;5956;51.428;6.682;2022-08-03T12:05:19;2.72;;;1.98;;
11797;SDS011;5956;51.428;6.682;2022-08-03T12:07:46;2.72;;;1.70;;
11797;SDS011;5956;51.428;6.682;2022-08-03T12:10:12;2.92;;;1.80;;
11797;SDS011;5956;51.428;6.682;2022-08-03T12:12:40;4.55;;;1.98;;
11797;SDS011;5956;51.428;6.682;2022-08-03T12:15:07;4.85;;;2.08;;
11797;SDS011;5956;51.428;6.682;2022-08-03T12:17:35;5.70;;;4.00;;
11797;SDS011;5956;51.428;6.682;2022-08-03T12:20:02;8.15;;;5.35;;
11797;SDS011;5956;51.428;6.682;2022-08-03T12:22:30;3.78;;;1.90;;
11797;SDS011;5956;51.428;6.682;2022-08-03T12:24:57;5.03;;;1.70;;
11797;SDS011;5956;51.428;6.682;2022-08-03T12:27:23;2.85;;;1.50;;
11797;SDS011;5956;51.428;6.682;2022-08-03T12:29:50;3.33;;;1.77;;
11797;SDS011;5956;51.428;6.682;2022-08-03T12:32:18;3.42;;;1.70;;
11797;SDS011;5956;51.428;6.682;2022-08-03T12:34:46;2.42;;;1.33;;
11797;SDS011;5956;51.428;6.682;2022-08-03T12:37:13;2.83;;;1.40;;
11797;SDS011;5956;51.428;6.682;2022-08-03T12:39:40;2.95;;;1.60;;
11797;SDS011;5956;51.428;6.682;2022-08-03T12:42:06;3.05;;;1.50;;
11797;SDS011;5956;51.428;6.682;2022-08-03T12:44:33;2.03;;;1.40;;
11797;SDS011;5956;51.428;6.682;2022-08-03T12:47:01;2.92;;;1.42;;
11797;SDS011;5956;51.428;6.682;2022-08-03T12:49:27;3.92;;;1.73;;
11797;SDS011;5956;51.428;6.682;2022-08-03T12:51:56;3.33;;;1.58;;
11797;SDS011;5956;51.428;6.682;2022-08-03T12:54:24;3.45;;;1.55;;
11797;SDS011;5956;51.428;6.682;2022-08-03T12:56:56;3.38;;;1.70;;
11797;SDS011;5956;51.428;6.682;2022-08-03T12:59:23;2.55;;;1.42;;
11797;SDS011;5956;51.428;6.682;2022-08-03T13:01:50;2.97;;;1.73;;
11797;SDS011;5956;51.428;6.682;2022-08-03T13:04:24;4.35;;;1.65;;
11797;SDS011;5956;51.428;6.682;2022-08-03T13:06:56;2.63;;;1.73;;
11797;SDS011;5956;51.428;6.682;2022-08-03T13:09:23;2.35;;;1.58;;
11797;SDS011;5956;51.428;6.682;2022-08-03T13:12:03;6.70;;;1.80;;
11797;SDS011;5956;51.428;6.682;2022-08-03T13:14:29;4.18;;;2.72;;
11797;SDS011;5956;51.428;6.682;2022-08-03T13:16:56;4.07;;;2.00;;
11797;SDS011;5956;51.428;6.682;2022-08-03T13:19:22;5.20;;;1.83;;
11797;SDS011;5956;51.428;6.682;2022-08-03T13:21:49;4.85;;;1.40;;
11797;SDS011;5956;51.428;6.682;2022-08-03T13:24:17;2.20;;;1.40;;
11797;SDS011;5956;51.428;6.682;2022-08-03T13:26:43;2.28;;;1.30;;
11797;SDS011;5956;51.428;6.682;2022-08-03T13:29:10;3.03;;;1.38;;
11797;SDS011;5956;51.428;6.682;2022-08-03T13:31:37;3.15;;;1.38;;
11797;SDS011;5956;51.428;6.682;2022-08-03T13:34:03;4.25;;;1.75;;
11797;SDS011;5956;51.428;6.682;2022-08-03T13:36:30;4.22;;;1.27;;
11797;SDS011;5956;51.428;6.682;2022-08-03T13:38:56;1.98;;;1.17;;
11797;SDS011;5956;51.428;6.682;2022-08-03T13:41:24;2.53;;;1.30;;
11797;SDS011;5956;51.428;6.682;2022-08-03T13:43:51;1.63;;;1.40;;
11797;SDS011;5956;51.428;6.682;2022-08-03T13:46:17;2.45;;;1.25;;
11797;SDS011;5956;51.428;6.682;2022-08-03T13:48:44;2.30;;;0.90;;
11797;SDS011;5956;51.428;6.682;2022-08-03T13:51:10;1.00;;;1.00;;
11797;SDS011;5956;51.428;6.682;2022-08-03T13:53:37;1.60;;;1.10;;
11797;SDS011;5956;51.428;6.682;2022-08-03T13:56:03;1.23;;;0.90;;
11797;SDS011;5956;51.428;6.682;2022-08-03T13:58:31;3.22;;;1.20;;
11797;SDS011;5956;51.428;6.682;2022-08-03T14:00:58;3.50;;;1.45;;
11797;SDS011;5956;51.428;6.682;2022-08-03T14:03:25;2.53;;;1.00;;
11797;SDS011;5956;51.428;6.682;2022-08-03T14:05:51;4.80;;;1.30;;
11797;SDS011;5956;51.428;6.682;2022-08-03T14:08:18;1.52;;;0.85;;
11797;SDS011;5956;51.428;6.682;2022-08-03T14:10:44;2.58;;;1.10;;
11797;SDS011;5956;51.428;6.682;2022-08-03T14:13:11;2.92;;;1.25;;
11797;SDS011;5956;51.428;6.682;2022-08-03T14:15:40;3.58;;;1.20;;
11797;SDS011;5956;51.428;6.682;2022-08-03T14:18:07;1.67;;;1.00;;
11797;SDS011;5956;51.428;6.682;2022-08-03T14:20:34;1.63;;;1.15;;
11797;SDS011;5956;51.428;6.682;2022-08-03T14:23:01;1.30;;;1.10;;
11797;SDS011;5956;51.428;6.682;2022-08-03T14:25:28;4.07;;;1.30;;
11797;SDS011;5956;51.428;6.682;2022-08-03T14:27:55;3.08;;;1.20;;
11797;SDS011;5956;51.428;6.682;2022-08-03T14:30:21;2.03;;;1.10;;
11797;SDS011;5956;51.428;6.682;2022-08-03T14:32:49;2.80;;;1.17;;
11797;SDS011;5956;51.428;6.682;2022-08-03T14:35:15;4.90;;;1.30;;
11797;SDS011;5956;51.428;6.682;2022-08-03T14:37:42;1.80;;;1.42;;
11797;SDS011;5956;51.428;6.682;2022-08-03T14:40:09;1.65;;;1.05;;
11797;SDS011;5956;51.428;6.682;2022-08-03T14:42:36;2.30;;;1.17;;
11797;SDS011;5956;51.428;6.682;2022-08-03T14:45:03;1.98;;;0.93;;
11797;SDS011;5956;51.428;6.682;2022-08-03T14:47:29;3.45;;;1.38;;
11797;SDS011;5956;51.428;6.682;2022-08-03T14:49:58;3.63;;;1.17;;
11797;SDS011;5956;51.428;6.682;2022-08-03T14:52:26;2.30;;;1.08;;
11797;SDS011;5956;51.428;6.682;2022-08-03T14:54:52;2.17;;;0.90;;
11797;SDS011;5956;51.428;6.682;2022-08-03T14:57:19;4.32;;;1.42;;
11797;SDS011;5956;51.428;6.682;2022-08-03T14:59:45;2.75;;;1.05;;
11797;SDS011;5956;51.428;6.682;2022-08-03T15:02:12;1.75;;;0.90;;
11797;SDS011;5956;51.428;6.682;2022-08-03T15:04:38;1.33;;;1.08;;
11797;SDS011;5956;51.428;6.682;2022-08-03T15:07:06;3.42;;;1.40;;
11797;SDS011;5956;51.428;6.682;2022-08-03T15:09:33;3.40;;;1.23;;
11797;SDS011;5956;51.428;6.682;2022-08-03T15:11:59;1.17;;;0.90;;
11797;SDS011;5956;51.428;6.682;2022-08-03T15:14:26;2.83;;;1.00;;
11797;SDS011;5956;51.428;6.682;2022-08-03T15:16:53;1.48;;;1.05;;